createdAt,value
2019-04-22T00:01:43.603Z,67.10
2019-04-22T00:04:17.796Z,67.20
2019-04-22T00:07:03.304Z,67.40
2019-04-22T00:09:38.841Z,67.50
2019-04-22T00:12:16.470Z,67.50
2019-04-22T00:14:34.642Z,67.70
2019-04-22T00:17:20.348Z,67.60
2019-04-22T00:19:43.852Z,67.50
2019-04-22T00:22:18.541Z,67.60
2019-04-22T00:24:39.043Z,67.50
2019-04-22T00:27:18.344Z,67.50
2019-04-22T00:32:33.743Z,67.40
2019-04-22T00:35:01.941Z,68.00
2019-04-22T00:37:34.686Z,68.10
2019-04-22T00:40:12.941Z,67.60
2019-04-22T00:42:36.313Z,67.70
2019-04-22T00:45:07.900Z,67.70
2019-04-22T00:47:38.044Z,67.70
2019-04-22T00:52:35.806Z,68.10
2019-04-22T01:00:06.662Z,68.40
2019-04-22T01:02:46.078Z,68.40
2019-04-22T01:05:07.744Z,68.30
2019-04-22T01:07:58.996Z,68.40
2019-04-22T01:10:33.862Z,68.40
2019-04-22T01:12:59.260Z,68.90
2019-04-22T01:15:35.478Z,68.30
2019-04-22T01:18:21.091Z,68.30
2019-04-22T01:23:19.752Z,68.20
2019-04-22T01:25:46.413Z,68.20
2019-04-22T01:28:12.614Z,68.30
2019-04-22T01:30:38.418Z,68.30
2019-04-22T01:33:08.336Z,68.30
2019-04-22T01:35:38.604Z,68.40
2019-04-22T01:38:13.391Z,68.50
2019-04-22T01:40:59.781Z,68.80
2019-04-22T01:43:30.004Z,68.80
2019-04-22T01:45:56.185Z,69.00
2019-04-22T01:48:26.400Z,69.00
2019-04-22T01:50:54.956Z,69.10
2019-04-22T01:53:27.536Z,69.20
2019-04-22T01:55:59.053Z,69.20
2019-04-22T01:58:23.669Z,69.40
2019-04-22T02:01:14.706Z,69.60
2019-04-22T02:03:33.316Z,69.80
2019-04-22T02:06:02.445Z,70.20
2019-04-22T02:08:37.881Z,70.10
2019-04-22T02:11:01.012Z,70.10
2019-04-22T02:13:38.188Z,70.30
2019-04-22T02:16:21.224Z,70.30
2019-04-22T02:18:39.404Z,70.50
2019-04-22T02:21:01.523Z,70.40
2019-04-22T02:34:09.636Z,71.20
2019-04-22T02:41:28.875Z,71.60
2019-04-22T02:43:51.861Z,71.60
2019-04-22T02:56:27.475Z,72.10
2019-04-22T02:59:00.101Z,72.10
2019-04-22T03:01:24.816Z,72.20
2019-04-22T03:12:00.885Z,72.60
2019-04-22T03:16:40.307Z,72.90
2019-04-22T03:19:13.881Z,73.70
2019-04-22T03:29:04.760Z,73.40
2019-04-22T03:37:21.351Z,73.80
2019-04-22T03:39:46.246Z,73.80
2019-04-22T03:42:06.416Z,74.00
2019-04-22T03:49:32.245Z,74.10
2019-04-22T03:52:10.907Z,74.20
2019-04-22T03:57:24.986Z,74.50
2019-04-22T04:02:02.066Z,75.00
2019-04-22T04:07:38.362Z,75.50
2019-04-22T04:12:23.568Z,75.50
2019-04-22T04:15:16.178Z,75.60
2019-04-22T04:25:08.387Z,76.30
2019-04-22T04:27:50.833Z,76.40
2019-04-22T04:30:05.182Z,76.70
2019-04-22T04:32:34.325Z,76.60
2019-04-22T04:37:40.710Z,76.60
2019-04-22T04:40:07.466Z,76.70
2019-04-22T04:50:20.607Z,77.40
2019-04-22T04:58:04.370Z,77.80
2019-04-22T05:02:46.530Z,78.00
2019-04-22T05:05:16.796Z,78.20
2019-04-22T05:07:56.430Z,78.40
2019-04-22T05:15:57.640Z,78.60
2019-04-22T05:17:52.445Z,78.20
2019-04-22T05:20:33.719Z,78.60
2019-04-22T05:22:43.071Z,78.50
2019-04-22T05:25:12.998Z,78.50
2019-04-22T05:27:40.047Z,78.50
2019-04-22T05:37:45.715Z,78.50
2019-04-22T05:40:18.666Z,78.30
2019-04-22T05:42:34.511Z,78.40
2019-04-22T05:47:38.980Z,78.30
2019-04-22T05:50:10.896Z,77.80
2019-04-22T05:52:46.880Z,77.40
2019-04-22T05:57:45.727Z,76.50
2019-04-22T06:00:25.677Z,76.40
2019-04-22T06:02:53.624Z,76.00
2019-04-22T06:05:22.349Z,76.10
2019-04-22T06:07:45.641Z,75.80
2019-04-22T06:12:43.228Z,75.50
2019-04-22T06:15:18.324Z,75.40
2019-04-22T06:17:55.126Z,74.90
2019-04-22T06:20:25.604Z,74.30
2019-04-22T06:25:27.784Z,73.90
2019-04-22T06:27:54.197Z,73.70
2019-04-22T06:30:20.657Z,73.60
2019-04-22T06:32:59.204Z,73.50
2019-04-22T06:35:31.140Z,73.30
2019-04-22T06:38:22.790Z,73.00
2019-04-22T06:40:27.515Z,72.80
2019-04-22T06:42:58.580Z,72.60
2019-04-22T06:45:26.374Z,72.20
2019-04-22T06:48:13.113Z,71.90
2019-04-22T06:50:33.925Z,71.80
2019-04-22T06:53:00.069Z,71.50
2019-04-22T06:55:29.824Z,71.30
2019-04-22T06:58:00.364Z,71.40
2019-04-22T07:00:29.377Z,71.40
2019-04-22T07:03:18.987Z,71.00
2019-04-22T07:05:28.045Z,70.50
2019-04-22T07:08:04.142Z,71.00
2019-04-22T07:12:58.422Z,70.40
2019-04-22T07:15:42.411Z,70.10
2019-04-22T07:18:04.288Z,69.70
2019-04-22T07:20:34.915Z,70.20
2019-04-22T07:23:03.405Z,70.20
2019-04-22T07:25:32.753Z,69.70
2019-04-22T07:28:01.469Z,70.00
2019-04-22T07:35:36.217Z,68.30
2019-04-22T07:38:04.682Z,68.10
2019-04-22T07:40:34.099Z,67.20
2019-04-22T07:43:09.063Z,66.20
2019-04-22T07:45:39.136Z,66.50
2019-04-22T07:48:09.630Z,66.10
2019-04-22T07:50:49.413Z,66.10
2019-04-22T07:53:05.400Z,65.90
2019-04-22T07:55:32.718Z,65.70
2019-04-22T07:58:05.440Z,65.90
2019-04-22T08:00:34.219Z,65.80
2019-04-22T08:05:45.978Z,65.40
2019-04-22T08:08:13.119Z,65.10
2019-04-22T08:13:05.659Z,64.20
2019-04-22T08:15:41.041Z,63.20
2019-04-22T08:18:14.101Z,63.00
2019-04-22T08:20:45.537Z,63.00
2019-04-22T08:23:08.772Z,63.40
2019-04-22T08:25:38.831Z,63.80
2019-04-22T08:28:11.819Z,63.70
2019-04-22T08:30:44.005Z,63.30
2019-04-22T08:33:15.974Z,63.20
2019-04-22T08:38:11.892Z,62.60
2019-04-22T08:40:48.746Z,63.30
2019-04-22T08:43:22.229Z,63.20
2019-04-22T08:48:15.097Z,62.90
2019-04-22T08:50:44.604Z,63.00
2019-04-22T08:53:28.631Z,63.10
2019-04-22T08:55:57.955Z,63.00
2019-04-22T09:00:57.175Z,62.30
2019-04-22T09:03:16.206Z,62.10
2019-04-22T09:08:19.076Z,61.70
2019-04-22T09:10:55.275Z,61.20
2019-04-22T09:13:31.858Z,63.00
2019-04-22T09:15:49.110Z,60.70
2019-04-22T09:18:21.653Z,61.50
2019-04-22T09:21:04.193Z,59.40
2019-04-22T09:23:30.226Z,58.90
2019-04-22T09:25:53.180Z,57.90
2019-04-22T09:28:26.030Z,57.90
2019-04-22T09:31:02.084Z,58.40
2019-04-22T09:33:28.993Z,57.70
2019-04-22T09:36:00.444Z,58.10
2019-04-22T09:41:00.716Z,57.70
2019-04-22T09:43:33.604Z,57.80
2019-04-22T09:45:57.415Z,56.60
2019-04-22T09:50:58.918Z,57.40
2019-04-22T09:53:32.192Z,56.30
2019-04-22T09:56:27.368Z,56.60
2019-04-22T09:58:52.367Z,56.10
2019-04-22T10:01:30.721Z,54.40
2019-04-22T10:03:56.363Z,54.40
2019-04-22T10:06:30.269Z,54.20
2019-04-22T10:09:12.701Z,53.10
2019-04-22T10:16:35.422Z,53.60
2019-04-22T10:19:00.941Z,50.70
2019-04-22T10:21:35.556Z,51.60
2019-04-22T10:23:50.612Z,50.30
2019-04-22T10:26:31.727Z,51.20
2019-04-22T10:29:01.721Z,50.40
2019-04-22T10:31:32.887Z,50.70
2019-04-22T10:33:50.035Z,50.40
2019-04-22T10:36:03.653Z,49.90
2019-04-22T10:38:32.586Z,49.50
2019-04-22T10:41:02.639Z,49.30
2019-04-22T10:43:32.820Z,50.30
2019-04-22T10:46:02.086Z,50.00
2019-04-22T10:48:32.320Z,50.00
2019-04-22T10:51:01.233Z,49.10
2019-04-22T10:53:31.140Z,49.20
2019-04-22T10:56:00.983Z,48.40
2019-04-22T10:58:30.796Z,48.40
2019-04-22T11:01:00.174Z,46.90
2019-04-22T11:03:29.215Z,46.00
2019-04-22T11:05:59.302Z,45.50
2019-04-22T11:08:37.996Z,43.80
2019-04-22T11:11:30.173Z,44.40
2019-04-22T11:13:49.523Z,42.70
2019-04-22T11:16:19.346Z,43.10
2019-04-22T11:18:49.499Z,44.70
2019-04-22T11:21:19.804Z,42.40
2019-04-22T11:23:48.649Z,43.40
2019-04-22T11:26:17.712Z,44.30
2019-04-22T11:28:47.617Z,39.60
2019-04-22T11:31:16.670Z,40.90
2019-04-22T11:33:45.276Z,40.80
2019-04-22T11:36:13.917Z,41.30
2019-04-22T11:38:48.690Z,40.20
2019-04-22T11:41:12.811Z,40.50
2019-04-22T11:43:42.975Z,39.50
2019-04-22T11:46:13.343Z,37.20
2019-04-22T11:48:42.436Z,39.40
2019-04-22T11:51:11.648Z,36.60
2019-04-22T11:53:40.916Z,38.10
2019-04-22T11:56:10.990Z,40.60
2019-04-22T11:58:39.866Z,38.70
2019-04-22T12:01:08.697Z,38.70
2019-04-22T12:03:49.802Z,38.00
2019-04-22T12:06:19.760Z,38.40
2019-04-22T12:08:49.916Z,38.00
2019-04-22T12:11:20.555Z,37.20
2019-04-22T12:14:09.756Z,36.50
2019-04-22T12:16:39.358Z,35.90
2019-04-22T12:19:09.212Z,35.30
2019-04-22T12:21:39.354Z,34.20
2019-04-22T12:24:09.112Z,34.10
2019-04-22T12:26:38.139Z,34.00
2019-04-22T12:29:07.129Z,31.00
2019-04-22T12:31:35.838Z,31.30
2019-04-22T12:34:05.980Z,32.80
2019-04-22T12:36:36.130Z,30.80
2019-04-22T12:39:07.598Z,32.80
2019-04-22T12:41:36.269Z,32.20
2019-04-22T12:44:05.281Z,32.10
2019-04-22T12:46:34.240Z,32.70
2019-04-22T12:49:04.432Z,33.10
2019-04-22T12:51:33.339Z,31.80
2019-04-22T12:54:03.399Z,31.10
2019-04-22T12:56:33.387Z,31.10
2019-04-22T12:59:03.682Z,30.50
2019-04-22T13:01:33.121Z,29.90
2019-04-22T13:04:07.359Z,29.60
2019-04-22T13:06:32.372Z,29.30
2019-04-22T13:09:02.181Z,29.60
2019-04-22T13:11:34.843Z,30.20
2019-04-22T13:14:01.313Z,29.80
2019-04-22T13:16:31.345Z,29.90
2019-04-22T13:19:05.158Z,29.80
2019-04-22T13:21:31.097Z,30.40
2019-04-22T13:23:59.920Z,29.50
2019-04-22T13:26:29.750Z,29.40
2019-04-22T13:28:59.069Z,30.30
2019-04-22T13:31:30.883Z,30.10
2019-04-22T13:34:03.559Z,29.20
2019-04-22T13:36:31.710Z,30.50
2019-04-22T13:39:03.032Z,30.00
2019-04-22T13:41:40.001Z,30.60
2019-04-22T13:44:02.084Z,30.10
2019-04-22T13:46:32.144Z,30.00
2019-04-22T13:49:34.019Z,29.50
2019-04-22T13:56:51.871Z,29.70
2019-04-22T13:59:10.226Z,29.70
2019-04-22T14:01:52.651Z,29.90
2019-04-22T14:04:28.633Z,30.00
2019-04-22T14:06:58.647Z,27.90
2019-04-22T14:09:28.362Z,28.40
2019-04-22T14:12:02.986Z,28.50
2019-04-22T14:14:28.129Z,29.00
2019-04-22T14:16:56.923Z,29.00
2019-04-22T14:19:26.028Z,29.80
2019-04-22T14:21:55.646Z,29.90
2019-04-22T14:24:25.790Z,30.30
2019-04-22T14:27:08.773Z,30.30
2019-04-22T14:29:26.017Z,30.60
2019-04-22T14:32:06.709Z,30.70
2019-04-22T14:34:26.588Z,31.00
2019-04-22T14:36:55.468Z,31.50
2019-04-22T14:39:24.143Z,31.30
2019-04-22T14:42:12.345Z,31.70
2019-04-22T14:45:15.487Z,32.00
2019-04-22T14:49:47.463Z,32.00
2019-04-22T14:52:15.039Z,32.40
2019-04-22T14:54:37.719Z,33.50
2019-04-22T14:56:56.255Z,33.30
2019-04-22T14:59:25.143Z,33.60
2019-04-22T15:01:54.126Z,33.80
2019-04-22T15:04:23.458Z,34.20
2019-04-22T15:06:52.753Z,34.40
2019-04-22T15:09:21.820Z,34.60
2019-04-22T15:12:04.952Z,34.50
2019-04-22T15:14:21.506Z,34.80
2019-04-22T15:17:22.899Z,34.20
2019-04-22T15:20:16.902Z,33.60
2019-04-22T15:22:46.473Z,34.20
2019-04-22T15:25:16.616Z,34.10
2019-04-22T15:27:45.932Z,34.00
2019-04-22T15:30:15.164Z,34.20
2019-04-22T15:32:45.230Z,33.70
2019-04-22T15:35:15.536Z,33.90
2019-04-22T15:37:45.580Z,33.90
2019-04-22T15:40:14.360Z,33.10
2019-04-22T15:42:43.763Z,32.80
2019-04-22T15:45:14.952Z,32.60
2019-04-22T15:47:44.110Z,32.00
2019-04-22T15:50:14.101Z,32.30
2019-04-22T15:52:49.451Z,32.10
2019-04-22T15:55:14.419Z,32.10
2019-04-22T15:57:43.977Z,31.30
2019-04-22T16:00:25.120Z,31.80
2019-04-22T16:02:43.739Z,31.60
2019-04-22T16:05:13.010Z,31.70
2019-04-22T16:07:42.248Z,31.70
2019-04-22T16:10:12.247Z,32.00
2019-04-22T16:12:52.364Z,30.90
2019-04-22T16:15:13.191Z,31.10
2019-04-22T16:17:42.492Z,31.60
2019-04-22T16:20:11.284Z,31.40
2019-04-22T16:22:59.291Z,31.30
2019-04-22T16:25:47.185Z,31.20
2019-04-22T16:28:17.313Z,31.10
2019-04-22T16:30:46.153Z,31.10
2019-04-22T16:33:15.158Z,31.50
2019-04-22T16:35:44.956Z,31.80
2019-04-22T16:38:14.929Z,31.70
2019-04-22T16:40:45.000Z,31.20
2019-04-22T16:43:16.585Z,31.40
2019-04-22T16:45:45.562Z,32.10
2019-04-22T16:48:15.686Z,32.00
2019-04-22T16:50:46.646Z,32.40
2019-04-22T16:53:15.059Z,33.10
2019-04-22T16:55:44.680Z,33.00
2019-04-22T16:58:14.747Z,32.60
2019-04-22T17:00:44.876Z,33.00
2019-04-22T17:03:36.579Z,33.20
2019-04-22T17:06:23.430Z,33.60
2019-04-22T17:08:52.896Z,33.70
2019-04-22T17:11:22.165Z,34.00
2019-04-22T17:13:50.820Z,34.50
2019-04-22T17:16:20.185Z,34.60
2019-04-22T17:18:50.063Z,35.10
2019-04-22T17:21:19.597Z,35.20
2019-04-22T17:23:49.694Z,35.50
2019-04-22T17:26:18.828Z,35.50
2019-04-22T17:28:49.234Z,35.40
2019-04-22T17:31:18.631Z,35.70
2019-04-22T17:33:48.731Z,36.70
2019-04-22T17:36:18.339Z,35.80
2019-04-22T17:38:55.065Z,36.20
2019-04-22T17:41:28.284Z,36.20
2019-04-22T17:44:12.454Z,36.00
2019-04-22T17:46:48.229Z,36.00
2019-04-22T17:49:31.561Z,36.20
2019-04-22T17:52:18.960Z,36.20
2019-04-22T17:54:48.181Z,36.50
2019-04-22T17:57:17.499Z,36.90
2019-04-22T17:59:46.646Z,37.20
2019-04-22T18:02:21.284Z,37.50
2019-04-22T18:04:33.701Z,37.50
2019-04-22T18:07:23.427Z,37.50
2019-04-22T18:12:25.754Z,37.90
2019-04-22T18:14:54.792Z,37.90
2019-04-22T18:17:23.761Z,37.90
2019-04-22T18:19:49.211Z,38.30
2019-04-22T18:22:16.407Z,38.80
2019-04-22T18:24:46.312Z,39.20
2019-04-22T18:27:34.271Z,39.30
2019-04-22T18:29:48.454Z,39.40
2019-04-22T18:32:16.531Z,39.70
2019-04-22T18:34:44.319Z,39.90
2019-04-22T18:37:18.431Z,40.30
2019-04-22T18:39:58.395Z,40.50
2019-04-22T18:42:21.761Z,40.70
2019-04-22T18:45:06.485Z,40.60
2019-04-22T18:47:18.786Z,40.60
2019-04-22T18:49:49.361Z,40.60
2019-04-22T18:52:59.234Z,40.80
2019-04-22T18:55:29.837Z,41.00
2019-04-22T18:58:04.179Z,41.50
2019-04-22T19:00:25.416Z,41.30
2019-04-22T19:03:01.930Z,41.50
2019-04-22T19:05:42.689Z,41.60
2019-04-22T19:11:08.313Z,41.80
2019-04-22T19:16:19.303Z,42.10
2019-04-22T19:18:29.952Z,42.10
2019-04-22T19:20:57.717Z,42.30
2019-04-22T19:23:26.009Z,42.40
2019-04-22T19:25:50.009Z,42.40
2019-04-22T19:28:29.090Z,42.30
2019-04-22T19:31:16.917Z,42.50
2019-04-22T19:33:40.331Z,42.70
2019-04-22T19:36:36.379Z,42.80
2019-04-22T19:38:59.194Z,43.00
2019-04-22T19:41:36.786Z,43.10
2019-04-22T19:44:05.577Z,43.40
2019-04-22T19:46:28.591Z,43.10
2019-04-22T19:49:10.278Z,43.40
2019-04-22T19:51:47.215Z,43.40
2019-04-22T19:54:00.776Z,43.50
2019-04-22T19:56:29.585Z,43.70
2019-04-22T19:59:03.630Z,44.10
2019-04-22T20:02:04.813Z,44.10
2019-04-22T20:04:47.979Z,44.20
2019-04-22T20:07:12.757Z,44.10
2019-04-22T20:09:49.317Z,44.20
2019-04-22T20:12:18.825Z,44.30
2019-04-22T20:14:48.021Z,44.00
2019-04-22T20:17:18.685Z,43.80
2019-04-22T20:19:51.207Z,43.90
2019-04-22T20:22:32.799Z,43.40
2019-04-22T20:24:55.378Z,43.50
2019-04-22T20:27:36.390Z,43.60
2019-04-22T20:30:04.677Z,43.50
2019-04-22T20:32:40.295Z,43.50
2019-04-22T20:35:07.453Z,43.60
2019-04-22T20:37:49.737Z,43.70
2019-04-22T20:40:10.575Z,43.50
2019-04-22T20:45:11.827Z,43.00
2019-04-22T20:47:34.540Z,43.00
2019-04-22T20:50:14.334Z,42.80
2019-04-22T20:52:52.821Z,42.20
2019-04-22T20:55:12.508Z,42.80
2019-04-22T20:57:49.763Z,41.90
2019-04-22T21:00:06.105Z,41.50
2019-04-22T21:02:32.417Z,41.80
2019-04-22T21:05:01.925Z,41.80
2019-04-22T21:07:37.073Z,41.60
2019-04-22T21:10:09.233Z,41.80
2019-04-22T21:12:36.359Z,41.90
2019-04-22T21:15:23.895Z,42.00
2019-04-22T21:17:44.778Z,42.10
2019-04-22T21:20:17.277Z,42.00
2019-04-22T21:22:54.965Z,42.10
2019-04-22T21:25:08.900Z,42.00
2019-04-22T21:27:50.467Z,42.20
2019-04-22T21:30:37.759Z,42.40
2019-04-22T21:33:03.986Z,42.50
2019-04-22T21:35:57.968Z,42.60
2019-04-22T21:38:11.289Z,42.60
2019-04-22T21:40:39.774Z,42.80
2019-04-22T21:43:12.642Z,42.60
2019-04-22T21:45:35.089Z,42.50
2019-04-22T21:48:20.650Z,42.20
2019-04-22T21:50:59.560Z,42.20
2019-04-22T21:53:14.564Z,42.40
2019-04-22T21:55:43.492Z,42.70
2019-04-22T21:58:18.048Z,43.00
2019-04-22T22:01:14.504Z,42.90
2019-04-22T22:03:38.895Z,42.90
2019-04-22T22:06:04.452Z,43.10
2019-04-22T22:08:41.213Z,42.80
2019-04-22T22:11:09.545Z,43.10
2019-04-22T22:13:39.225Z,42.60
2019-04-22T22:16:23.343Z,42.80
2019-04-22T22:19:02.257Z,42.90
2019-04-22T22:21:41.512Z,43.10
2019-04-22T22:24:05.397Z,43.00
2019-04-22T22:26:35.127Z,43.20
2019-04-22T22:29:05.059Z,43.00
2019-04-22T22:31:36.648Z,43.10
2019-04-22T22:34:04.132Z,43.20
2019-04-22T22:36:23.708Z,43.00
2019-04-22T22:38:58.476Z,43.00
2019-04-22T22:41:12.308Z,43.00
2019-04-22T22:43:47.500Z,43.20
2019-04-22T22:46:26.957Z,43.50
2019-04-22T22:49:05.086Z,43.60
2019-04-22T22:51:40.346Z,44.00
2019-04-22T22:54:09.754Z,44.40
2019-04-22T22:56:42.340Z,44.90
2019-04-22T22:59:03.485Z,45.00
2019-04-22T23:01:39.770Z,45.00
2019-04-22T23:04:12.783Z,45.20
2019-04-22T23:06:39.059Z,44.80
2019-04-22T23:09:09.982Z,45.00
2019-04-22T23:11:52.244Z,44.60
2019-04-22T23:14:06.950Z,44.80
2019-04-22T23:16:28.160Z,44.80
2019-04-22T23:19:04.465Z,44.60
2019-04-22T23:21:39.705Z,44.70
2019-04-22T23:24:23.580Z,44.40
2019-04-22T23:27:00.254Z,44.30
2019-04-22T23:29:43.599Z,44.30
2019-04-22T23:32:18.206Z,44.40
2019-04-22T23:34:55.964Z,44.20
2019-04-22T23:37:29.329Z,44.10
2019-04-22T23:40:09.968Z,44.50
2019-04-22T23:42:33.795Z,44.30
2019-04-22T23:45:12.578Z,44.60
2019-04-22T23:47:30.987Z,44.50
2019-04-22T23:50:09.137Z,44.80
2019-04-22T23:52:45.377Z,44.60
2019-04-22T23:55:18.692Z,44.80
2019-04-22T23:57:46.930Z,45.10
